createdAt,value
2019-05-16T00:01:02.320Z,6.72
2019-05-16T00:03:38.297Z,6.62
2019-05-16T00:06:11.453Z,6.66
2019-05-16T00:08:44.252Z,6.62
2019-05-16T00:11:18.015Z,6.57
2019-05-16T00:13:53.555Z,6.57
2019-05-16T00:16:30.065Z,6.61
2019-05-16T00:19:03.986Z,6.74
2019-05-16T00:21:38.231Z,6.74
2019-05-16T00:24:11.054Z,6.67
2019-05-16T00:26:45.087Z,6.65
2019-05-16T00:29:18.410Z,6.63
2019-05-16T00:31:51.387Z,6.51
2019-05-16T00:34:24.323Z,6.50
2019-05-16T00:36:58.303Z,6.52
2019-05-16T00:39:29.840Z,6.44
2019-05-16T00:42:01.798Z,6.38
2019-05-16T00:44:35.236Z,6.44
2019-05-16T00:47:08.807Z,6.42
2019-05-16T00:49:42.488Z,6.48
2019-05-16T00:52:18.418Z,6.44
2019-05-16T00:54:50.534Z,6.42
2019-05-16T00:57:28.104Z,6.46
2019-05-16T00:59:59.222Z,6.49
2019-05-16T01:02:52.844Z,6.56
2019-05-16T01:05:24.720Z,6.50
2019-05-16T01:07:58.444Z,6.53
2019-05-16T01:10:33.290Z,6.47
2019-05-16T01:13:27.852Z,6.47
2019-05-16T01:16:01.366Z,6.53
2019-05-16T01:18:33.927Z,6.50
2019-05-16T01:21:28.567Z,6.55
2019-05-16T01:24:01.406Z,6.57
2019-05-16T01:26:35.143Z,6.55
2019-05-16T01:29:08.251Z,6.60
2019-05-16T01:31:43.729Z,6.61
2019-05-16T01:34:18.110Z,6.58
2019-05-16T01:36:52.835Z,6.70
2019-05-16T01:39:28.754Z,6.78
2019-05-16T01:42:00.758Z,6.73
2019-05-16T01:44:32.665Z,6.68
2019-05-16T01:47:08.990Z,6.61
2019-05-16T01:49:42.287Z,6.65
2019-05-16T01:52:14.299Z,6.62
2019-05-16T01:54:48.505Z,6.53
2019-05-16T01:57:20.710Z,6.54
2019-05-16T01:59:58.748Z,6.60
2019-05-16T02:02:28.952Z,6.59
2019-05-16T02:05:00.855Z,6.52
2019-05-16T02:07:33.866Z,6.40
2019-05-16T02:10:10.607Z,6.48
2019-05-16T02:13:02.934Z,6.46
2019-05-16T02:15:38.305Z,6.45
2019-05-16T02:18:12.524Z,6.51
2019-05-16T02:21:07.935Z,6.52
2019-05-16T02:24:02.213Z,6.53
2019-05-16T02:26:34.624Z,6.54
2019-05-16T02:29:06.378Z,6.56
2019-05-16T02:31:42.221Z,6.52
2019-05-16T02:34:16.285Z,6.47
2019-05-16T02:37:10.294Z,6.39
2019-05-16T02:39:23.961Z,6.44
2019-05-16T02:41:56.121Z,6.41
2019-05-16T02:44:31.897Z,6.34
2019-05-16T02:47:05.457Z,6.35
2019-05-16T02:49:41.626Z,6.42
2019-05-16T02:52:12.591Z,6.38
2019-05-16T02:54:45.860Z,6.36
2019-05-16T02:57:21.077Z,6.36
2019-05-16T02:59:52.486Z,6.36
2019-05-16T03:02:24.900Z,6.49
2019-05-16T03:05:01.029Z,6.48
2019-05-16T03:07:41.619Z,6.35
2019-05-16T03:10:11.193Z,6.33
2019-05-16T03:12:44.662Z,6.35
2019-05-16T03:15:16.800Z,6.33
2019-05-16T03:17:52.369Z,6.33
2019-05-16T03:20:31.318Z,6.36
2019-05-16T03:23:02.429Z,6.38
2019-05-16T03:25:34.327Z,6.34
2019-05-16T03:28:10.911Z,6.28
2019-05-16T03:30:44.706Z,6.22
2019-05-16T03:33:25.915Z,6.35
2019-05-16T03:35:54.690Z,6.21
2019-05-16T03:38:26.322Z,6.18
2019-05-16T03:41:01.037Z,6.07
2019-05-16T03:43:32.350Z,6.33
2019-05-16T03:46:04.389Z,6.28
2019-05-16T03:48:40.662Z,6.24
2019-05-16T03:51:12.611Z,6.16
2019-05-16T03:53:44.648Z,6.14
2019-05-16T03:56:16.761Z,6.18
2019-05-16T03:58:51.001Z,6.26
2019-05-16T04:01:22.359Z,6.26
2019-05-16T04:03:54.608Z,6.44
2019-05-16T04:06:27.414Z,6.53
2019-05-16T04:09:01.908Z,6.81
2019-05-16T04:11:34.703Z,7.18
2019-05-16T04:14:10.896Z,7.54
2019-05-16T04:16:43.143Z,7.75
2019-05-16T04:19:15.002Z,8.07
2019-05-16T04:21:50.839Z,8.53
2019-05-16T04:24:21.878Z,8.98
2019-05-16T04:26:53.805Z,9.33
2019-05-16T04:29:26.108Z,9.13
2019-05-16T04:32:01.169Z,9.11
2019-05-16T04:34:31.450Z,9.47
2019-05-16T04:37:03.208Z,9.78
2019-05-16T04:39:36.427Z,9.78
2019-05-16T04:42:10.834Z,9.89
2019-05-16T04:44:42.579Z,9.78
2019-05-16T04:47:14.202Z,10.11
2019-05-16T04:49:46.020Z,10.67
2019-05-16T04:52:17.769Z,10.49
2019-05-16T04:54:51.180Z,10.86
2019-05-16T04:57:23.689Z,11.09
2019-05-16T05:00:02.142Z,11.80
2019-05-16T05:02:34.144Z,12.29
2019-05-16T05:05:06.696Z,12.43
2019-05-16T05:07:40.650Z,11.65
2019-05-16T05:10:14.203Z,12.24
2019-05-16T05:12:47.351Z,12.35
2019-05-16T05:15:21.294Z,12.80
2019-05-16T05:17:54.525Z,13.04
2019-05-16T05:20:30.214Z,13.39
2019-05-16T05:23:04.749Z,13.08
2019-05-16T05:25:40.456Z,13.97
2019-05-16T05:28:13.686Z,14.37
2019-05-16T05:30:50.322Z,14.46
2019-05-16T05:33:23.078Z,14.64
2019-05-16T05:35:56.342Z,13.96
2019-05-16T05:38:32.514Z,14.50
2019-05-16T05:41:10.551Z,14.60
2019-05-16T05:43:42.203Z,14.50
2019-05-16T05:46:16.161Z,14.39
2019-05-16T05:48:50.552Z,14.78
2019-05-16T05:51:24.909Z,14.78
2019-05-16T05:53:56.605Z,15.70
2019-05-16T05:56:30.481Z,16.07
2019-05-16T05:59:05.212Z,16.46
2019-05-16T06:01:37.113Z,16.88
2019-05-16T06:04:10.835Z,16.74
2019-05-16T06:06:45.109Z,17.16
2019-05-16T06:09:28.410Z,17.37
2019-05-16T06:11:54.830Z,17.58
2019-05-16T06:14:26.318Z,18.02
2019-05-16T06:17:00.206Z,18.04
2019-05-16T06:19:32.412Z,18.19
2019-05-16T06:22:05.185Z,18.08
2019-05-16T06:24:39.911Z,18.40
2019-05-16T06:27:14.728Z,18.66
2019-05-16T06:29:46.155Z,18.91
2019-05-16T06:32:19.660Z,18.93
2019-05-16T06:34:51.597Z,19.76
2019-05-16T06:37:44.086Z,19.43
2019-05-16T06:40:16.233Z,19.79
2019-05-16T06:42:47.594Z,19.89
2019-05-16T06:45:20.524Z,20.09
2019-05-16T06:47:52.158Z,20.14
2019-05-16T06:50:25.197Z,20.17
2019-05-16T06:52:57.011Z,18.10
2019-05-16T06:55:29.629Z,18.47
2019-05-16T06:58:06.709Z,18.86
2019-05-16T07:00:40.574Z,18.51
2019-05-16T07:03:13.680Z,17.95
2019-05-16T07:05:47.177Z,18.72
2019-05-16T07:08:20.528Z,19.37
2019-05-16T07:11:04.904Z,20.08
2019-05-16T07:13:37.299Z,20.52
2019-05-16T07:16:11.944Z,20.20
2019-05-16T07:18:43.279Z,19.83
2019-05-16T07:21:19.997Z,20.64
2019-05-16T07:23:56.630Z,20.20
2019-05-16T07:26:30.918Z,19.70
2019-05-16T07:29:12.686Z,20.17
2019-05-16T07:31:43.800Z,20.72
2019-05-16T07:34:16.762Z,21.39
2019-05-16T07:36:50.186Z,21.58
2019-05-16T07:39:21.915Z,21.46
2019-05-16T07:41:53.118Z,21.86
2019-05-16T07:44:25.356Z,21.24
2019-05-16T07:47:01.008Z,21.55
2019-05-16T07:49:31.883Z,21.37
2019-05-16T07:52:05.671Z,21.72
2019-05-16T07:54:40.178Z,21.83
2019-05-16T07:57:19.168Z,21.40
2019-05-16T07:59:44.138Z,21.13
2019-05-16T08:02:15.534Z,21.14
2019-05-16T08:04:46.889Z,21.49
2019-05-16T08:07:20.054Z,21.65
2019-05-16T08:09:53.563Z,22.05
2019-05-16T08:12:26.400Z,22.78
2019-05-16T08:15:00.880Z,22.81
2019-05-16T08:17:33.732Z,23.42
2019-05-16T08:20:07.736Z,24.08
2019-05-16T08:22:41.562Z,24.07
2019-05-16T08:25:14.515Z,24.00
2019-05-16T08:27:46.206Z,23.28
2019-05-16T08:30:27.550Z,23.87
2019-05-16T08:33:02.740Z,24.02
2019-05-16T08:35:35.149Z,24.64
2019-05-16T08:38:07.683Z,24.94
2019-05-16T08:41:01.012Z,24.49
2019-05-16T08:43:14.179Z,23.79
2019-05-16T08:45:46.248Z,23.57
2019-05-16T08:48:22.370Z,23.39
2019-05-16T08:50:54.639Z,22.42
2019-05-16T08:53:24.041Z,22.64
2019-05-16T08:55:55.465Z,22.94
2019-05-16T08:58:26.982Z,22.86
2019-05-16T09:01:02.291Z,22.14
2019-05-16T09:03:32.874Z,23.43
2019-05-16T09:06:06.612Z,23.87
2019-05-16T09:08:38.701Z,24.32
2019-05-16T09:11:29.334Z,24.32
2019-05-16T09:13:44.183Z,24.80
2019-05-16T09:16:18.257Z,24.14
2019-05-16T09:18:51.084Z,23.67
2019-05-16T09:21:27.131Z,23.89
2019-05-16T09:23:57.951Z,23.54
2019-05-16T09:29:33.201Z,24.71
2019-05-16T09:32:15.281Z,25.61
2019-05-16T09:34:39.307Z,24.87
2019-05-16T09:37:10.836Z,23.74
2019-05-16T09:39:42.179Z,24.54
2019-05-16T09:42:13.397Z,24.63
2019-05-16T09:44:47.508Z,25.39
2019-05-16T09:47:18.171Z,25.76
2019-05-16T09:49:49.676Z,24.33
2019-05-16T09:52:21.264Z,23.42
2019-05-16T09:54:52.686Z,24.40
2019-05-16T09:57:24.123Z,24.50
2019-05-16T09:59:57.253Z,23.54
2019-05-16T10:02:28.871Z,24.56
2019-05-16T10:05:01.625Z,25.46
2019-05-16T10:07:33.311Z,25.63
2019-05-16T10:10:06.647Z,25.16
2019-05-16T10:12:52.911Z,21.75
2019-05-16T10:15:26.971Z,23.58
2019-05-16T10:17:59.165Z,23.41
2019-05-16T10:20:31.825Z,24.89
2019-05-16T10:23:08.452Z,24.82
2019-05-16T10:25:39.364Z,23.70
2019-05-16T10:28:12.095Z,24.71
2019-05-16T10:30:43.893Z,25.28
2019-05-16T10:33:18.881Z,24.99
2019-05-16T10:35:51.137Z,25.42
2019-05-16T10:38:28.091Z,24.64
2019-05-16T10:40:58.493Z,24.29
2019-05-16T10:43:31.855Z,24.71
2019-05-16T10:46:06.531Z,24.61
2019-05-16T10:48:39.253Z,24.57
2019-05-16T10:51:11.127Z,24.80
2019-05-16T10:54:02.379Z,25.29
2019-05-16T10:56:17.487Z,25.40
2019-05-16T10:59:24.888Z,24.76
2019-05-16T11:01:27.902Z,24.88
2019-05-16T11:03:56.820Z,23.77
2019-05-16T11:06:30.123Z,21.59
2019-05-16T11:09:01.469Z,22.42
2019-05-16T11:11:36.799Z,23.30
2019-05-16T11:14:09.504Z,24.39
2019-05-16T11:16:42.175Z,24.98
2019-05-16T11:19:21.310Z,25.40
2019-05-16T11:21:50.761Z,24.73
2019-05-16T11:24:23.479Z,24.13
2019-05-16T11:26:56.724Z,24.77
2019-05-16T11:29:28.538Z,25.28
2019-05-16T11:32:02.463Z,25.28
2019-05-16T11:34:33.699Z,25.28
2019-05-16T11:37:06.874Z,25.17
2019-05-16T11:39:37.990Z,22.66
2019-05-16T11:42:11.148Z,20.93
2019-05-16T11:44:47.792Z,21.17
2019-05-16T11:47:19.909Z,20.95
2019-05-16T11:49:51.094Z,22.59
2019-05-16T11:52:22.256Z,23.19
2019-05-16T11:54:53.608Z,22.52
2019-05-16T11:57:26.715Z,22.09
2019-05-16T11:59:58.184Z,22.88
2019-05-16T12:02:29.614Z,22.29
2019-05-16T12:05:04.455Z,21.69
2019-05-16T12:07:43.829Z,21.94
2019-05-16T12:10:12.052Z,22.75
2019-05-16T12:12:43.199Z,23.52
2019-05-16T12:15:19.700Z,23.33
2019-05-16T12:18:00.913Z,24.03
2019-05-16T12:20:23.028Z,24.23
2019-05-16T12:22:55.791Z,23.26
2019-05-16T12:25:27.398Z,23.21
2019-05-16T12:27:59.084Z,23.75
2019-05-16T12:30:31.911Z,23.57
2019-05-16T12:33:03.510Z,22.74
2019-05-16T12:35:36.956Z,22.74
2019-05-16T12:38:08.958Z,22.63
2019-05-16T12:40:41.044Z,22.58
2019-05-16T12:43:13.311Z,22.88
2019-05-16T12:45:47.128Z,23.23
2019-05-16T12:48:20.422Z,23.06
2019-05-16T12:50:50.609Z,21.73
2019-05-16T12:53:23.614Z,22.25
2019-05-16T12:55:56.785Z,21.62
2019-05-16T12:58:37.773Z,22.03
2019-05-16T13:01:03.205Z,22.68
2019-05-16T13:03:37.852Z,22.68
2019-05-16T13:06:12.466Z,20.87
2019-05-16T13:08:43.667Z,21.28
2019-05-16T13:11:17.737Z,21.39
2019-05-16T13:14:02.517Z,21.19
2019-05-16T13:16:23.603Z,21.15
2019-05-16T13:18:56.714Z,21.26
2019-05-16T13:21:28.441Z,21.71
2019-05-16T13:24:04.107Z,22.06
2019-05-16T13:26:37.337Z,22.15
2019-05-16T13:29:08.745Z,22.12
2019-05-16T13:31:41.113Z,22.24
2019-05-16T13:34:13.673Z,22.83
2019-05-16T13:36:47.343Z,23.01
2019-05-16T13:39:19.038Z,22.14
2019-05-16T13:41:52.234Z,22.25
2019-05-16T13:44:27.372Z,22.19
2019-05-16T13:46:59.746Z,22.02
2019-05-16T13:49:53.094Z,21.17
2019-05-16T13:52:28.006Z,20.90
2019-05-16T13:54:59.107Z,20.96
2019-05-16T13:57:30.825Z,20.55
2019-05-16T14:00:07.313Z,20.68
2019-05-16T14:02:40.912Z,20.27
2019-05-16T14:05:13.620Z,20.26
2019-05-16T14:07:48.056Z,20.16
2019-05-16T14:10:22.734Z,19.67
2019-05-16T14:12:54.842Z,19.03
2019-05-16T14:15:27.573Z,19.15
2019-05-16T14:17:59.070Z,19.16
2019-05-16T14:20:31.243Z,19.53
2019-05-16T14:23:08.058Z,19.77
2019-05-16T14:25:48.014Z,19.76
2019-05-16T14:28:23.383Z,19.20
2019-05-16T14:30:57.233Z,19.12
2019-05-16T14:33:28.144Z,18.97
2019-05-16T14:36:07.237Z,19.15
2019-05-16T14:38:40.236Z,19.27
2019-05-16T14:41:11.776Z,19.36
2019-05-16T14:43:43.653Z,19.26
2019-05-16T14:46:18.977Z,19.19
2019-05-16T14:48:53.885Z,19.27
2019-05-16T14:51:31.426Z,19.40
2019-05-16T14:54:00.873Z,19.44
2019-05-16T14:56:32.502Z,19.17
2019-05-16T14:59:08.178Z,19.24
2019-05-16T15:01:42.499Z,19.21
2019-05-16T15:04:15.002Z,19.39
2019-05-16T15:06:48.240Z,19.65
2019-05-16T15:09:19.637Z,19.83
2019-05-16T15:11:51.034Z,20.06
2019-05-16T15:14:22.594Z,20.10
2019-05-16T15:16:57.624Z,20.22
2019-05-16T15:19:31.937Z,20.05
2019-05-16T15:22:03.346Z,20.17
2019-05-16T15:24:36.909Z,20.18
2019-05-16T15:27:09.978Z,20.20
2019-05-16T15:29:43.436Z,20.05
2019-05-16T15:32:17.709Z,20.12
2019-05-16T15:34:52.189Z,20.02
2019-05-16T15:37:27.271Z,19.87
2019-05-16T15:39:57.809Z,19.77
2019-05-16T15:42:31.447Z,19.86
2019-05-16T15:45:03.348Z,20.28
2019-05-16T15:47:37.579Z,19.91
2019-05-16T15:50:13.084Z,19.81
2019-05-16T15:52:46.171Z,19.45
2019-05-16T15:55:19.729Z,19.24
2019-05-16T15:58:12.573Z,19.08
2019-05-16T16:00:48.890Z,18.89
2019-05-16T16:03:23.371Z,19.13
2019-05-16T16:05:56.452Z,19.39
2019-05-16T16:08:28.945Z,19.48
2019-05-16T16:11:00.412Z,19.34
2019-05-16T16:13:32.940Z,18.94
2019-05-16T16:16:09.197Z,18.94
2019-05-16T16:18:37.989Z,18.77
2019-05-16T16:21:10.541Z,18.81
2019-05-16T16:23:47.296Z,18.91
2019-05-16T16:26:20.613Z,18.67
2019-05-16T16:28:52.118Z,18.56
2019-05-16T16:31:27.274Z,18.50
2019-05-16T16:33:58.972Z,18.52
2019-05-16T16:36:31.696Z,18.69
2019-05-16T16:39:07.544Z,18.72
2019-05-16T16:41:41.378Z,18.87
2019-05-16T16:44:17.192Z,19.10
2019-05-16T16:46:49.200Z,18.83
2019-05-16T16:49:21.559Z,18.63
2019-05-16T16:51:52.938Z,18.52
2019-05-16T16:54:27.419Z,18.54
2019-05-16T16:56:58.406Z,18.52
2019-05-16T16:59:31.416Z,18.35
2019-05-16T17:02:02.712Z,18.08
2019-05-16T17:04:38.816Z,17.79
2019-05-16T17:07:10.970Z,17.64
2019-05-16T17:09:44.118Z,17.51
2019-05-16T17:12:16.845Z,17.54
2019-05-16T17:14:50.475Z,17.57
2019-05-16T17:17:22.013Z,17.44
2019-05-16T17:19:56.590Z,17.41
2019-05-16T17:22:27.629Z,17.29
2019-05-16T17:25:01.396Z,17.17
2019-05-16T17:27:37.687Z,17.07
2019-05-16T17:30:17.760Z,16.92
2019-05-16T17:32:51.124Z,16.80
2019-05-16T17:35:23.023Z,16.67
2019-05-16T17:37:54.485Z,16.47
2019-05-16T17:40:27.409Z,16.45
2019-05-16T17:43:00.523Z,16.45
2019-05-16T17:45:33.335Z,16.36
2019-05-16T17:48:06.884Z,16.26
2019-05-16T17:50:39.008Z,16.10
2019-05-16T17:53:10.694Z,16.02
2019-05-16T17:55:42.182Z,15.94
2019-05-16T17:58:16.458Z,15.87
2019-05-16T18:00:47.983Z,15.85
2019-05-16T18:03:19.737Z,15.74
2019-05-16T18:05:51.760Z,15.59
2019-05-16T18:08:24.979Z,15.58
2019-05-16T18:10:56.738Z,15.52
2019-05-16T18:13:29.117Z,15.44
2019-05-16T18:16:00.675Z,15.31
2019-05-16T18:18:31.947Z,15.16
2019-05-16T18:21:06.680Z,15.07
2019-05-16T18:23:37.780Z,15.11
2019-05-16T18:26:09.159Z,15.02
2019-05-16T18:28:41.230Z,15.03
2019-05-16T18:31:14.570Z,15.04
2019-05-16T18:33:46.019Z,14.98
2019-05-16T18:36:18.343Z,14.80
2019-05-16T18:38:50.116Z,15.02
2019-05-16T18:41:23.309Z,15.01
2019-05-16T18:43:56.481Z,15.11
2019-05-16T18:46:27.674Z,14.88
2019-05-16T18:48:59.671Z,14.62
2019-05-16T18:51:32.020Z,14.49
2019-05-16T18:54:03.890Z,14.66
2019-05-16T18:56:36.514Z,14.53
2019-05-16T18:59:08.578Z,14.33
2019-05-16T19:01:40.161Z,14.20
2019-05-16T19:04:13.431Z,14.17
2019-05-16T19:06:46.485Z,14.13
2019-05-16T19:09:18.818Z,14.12
2019-05-16T19:11:51.992Z,14.06
2019-05-16T19:14:23.410Z,13.91
2019-05-16T19:16:56.706Z,13.74
2019-05-16T19:19:30.159Z,13.65
2019-05-16T19:22:06.582Z,13.74
2019-05-16T19:24:42.289Z,14.10
2019-05-16T19:30:11.249Z,14.18
2019-05-16T19:33:01.961Z,14.34
2019-05-16T19:35:35.169Z,14.29
2019-05-16T19:38:08.653Z,14.43
2019-05-16T19:40:41.731Z,14.39
2019-05-16T19:43:13.081Z,14.44
2019-05-16T19:45:46.551Z,14.37
2019-05-16T19:48:18.335Z,14.36
2019-05-16T19:50:58.600Z,14.33
2019-05-16T19:53:31.186Z,14.29
2019-05-16T19:56:03.881Z,14.39
2019-05-16T19:58:37.194Z,14.32
2019-05-16T20:01:09.597Z,14.21
2019-05-16T20:03:42.280Z,14.23
2019-05-16T20:06:16.933Z,14.08
2019-05-16T20:11:41.589Z,13.93
2019-05-16T20:14:13.323Z,13.77
2019-05-16T20:16:47.157Z,13.62
2019-05-16T20:19:19.631Z,13.49
2019-05-16T20:21:51.269Z,13.26
2019-05-16T20:24:27.164Z,13.20
2019-05-16T20:27:10.857Z,13.20
2019-05-16T20:29:42.696Z,13.25
2019-05-16T20:32:16.842Z,13.31
2019-05-16T20:34:48.590Z,13.26
2019-05-16T20:37:21.724Z,13.33
2019-05-16T20:39:53.450Z,13.24
2019-05-16T20:42:27.182Z,13.10
2019-05-16T20:44:59.532Z,12.91
2019-05-16T20:47:33.190Z,12.84
2019-05-16T20:50:10.091Z,12.79
2019-05-16T20:52:43.499Z,12.85
2019-05-16T20:55:17.390Z,12.93
2019-05-16T20:57:50.433Z,12.82
2019-05-16T21:00:23.774Z,12.74
2019-05-16T21:02:57.368Z,12.70
2019-05-16T21:05:28.477Z,12.73
2019-05-16T21:08:00.021Z,12.69
2019-05-16T21:10:31.728Z,12.63
2019-05-16T21:13:06.852Z,12.66
2019-05-16T21:15:41.035Z,12.65
2019-05-16T21:18:13.263Z,12.53
2019-05-16T21:20:47.052Z,12.51
2019-05-16T21:23:21.457Z,12.78
2019-05-16T21:25:53.435Z,12.72
2019-05-16T21:28:26.671Z,12.58
2019-05-16T21:31:00.690Z,12.48
2019-05-16T21:33:36.245Z,12.45
2019-05-16T21:36:09.974Z,12.43
2019-05-16T21:38:42.017Z,12.43
2019-05-16T21:41:16.832Z,12.42
2019-05-16T21:43:51.358Z,12.39
2019-05-16T21:46:22.821Z,12.20
2019-05-16T21:48:56.724Z,11.77
2019-05-16T21:51:28.359Z,11.41
2019-05-16T21:54:00.636Z,11.25
2019-05-16T21:56:34.299Z,11.01
2019-05-16T21:59:09.812Z,10.88
2019-05-16T22:01:43.313Z,10.75
2019-05-16T22:04:16.071Z,10.84
2019-05-16T22:06:49.470Z,10.78
2019-05-16T22:09:21.514Z,10.91
2019-05-16T22:11:57.331Z,11.27
2019-05-16T22:14:52.845Z,11.36
2019-05-16T22:17:24.895Z,11.39
2019-05-16T22:20:19.362Z,11.25
2019-05-16T22:22:52.584Z,11.18
2019-05-16T22:25:27.263Z,11.12
2019-05-16T22:27:59.431Z,11.48
2019-05-16T22:30:33.815Z,11.83
2019-05-16T22:33:09.340Z,11.91
2019-05-16T22:35:43.114Z,11.91
2019-05-16T22:38:16.803Z,11.86
2019-05-16T22:40:51.007Z,11.77
2019-05-16T22:43:26.493Z,11.72
2019-05-16T22:45:57.935Z,11.86
2019-05-16T22:48:29.376Z,11.73
2019-05-16T22:51:07.181Z,11.64
2019-05-16T22:53:38.997Z,11.55
2019-05-16T22:56:10.877Z,11.44
2019-05-16T22:58:42.155Z,11.24
2019-05-16T23:01:14.023Z,11.12
2019-05-16T23:03:46.003Z,11.04
2019-05-16T23:06:20.535Z,10.56
2019-05-16T23:08:53.114Z,10.65
2019-05-16T23:11:27.001Z,10.33
2019-05-16T23:13:58.760Z,10.07
2019-05-16T23:16:33.145Z,9.78
2019-05-16T23:19:06.627Z,9.52
2019-05-16T23:21:38.340Z,9.38
2019-05-16T23:24:11.598Z,9.25
2019-05-16T23:26:43.195Z,9.16
2019-05-16T23:29:16.929Z,9.12
2019-05-16T23:31:50.855Z,9.04
2019-05-16T23:34:22.876Z,9.28
2019-05-16T23:36:57.026Z,9.37
2019-05-16T23:39:31.641Z,9.72
2019-05-16T23:42:06.238Z,9.82
2019-05-16T23:44:38.954Z,9.68
2019-05-16T23:47:12.567Z,9.74
2019-05-16T23:49:44.066Z,9.77
2019-05-16T23:52:17.075Z,9.50
2019-05-16T23:54:51.594Z,9.28
2019-05-16T23:57:23.670Z,9.13
2019-05-16T23:59:57.364Z,9.07
